Main page
METAR-TAF:

METAR-TAF

Airports :

Multan International Airport

Multan, Pakistan

latitude: 30-12-12N, longitude: 71-25-09E, elevation: 122 m

Current weather observation

The report was made 25 minutes ago, at 02:00 UTC
Wind 10 kt from the Northeast
Temperature 27°C
Humidity 74%
Pressure 1010 hPa
Visibility: 2500 m
Few clouds at a height of 4000 ft
Scattered clouds at a height of 10000 ft
smoke

METAR: OPMT 220200Z 05010KT 2500 FU FEW040 SCT100 27/22 Q1010 NOSIG

Time: 07:25 (02:25 UTC)

Forecast

The report was made 4 hours and 3 minutes ago, at 22:22 UTC
Forecast valid from 22 at 00 UTC to 22 at 18 UTC
Wind 10 kt from the Southwest
Visibility: 4000 m
Few clouds at a height of 12000 ft
smoke
Probability 30% :
Temporary
from 22 at 01 UTC to 22 at 04 UTC
Wind kt from the North
Visibility: 2000 m
smoke

TAF: OPMT 212222Z 2200/2218 23010KT 4000 FU FEW120 TN26/2201Z TX37/2210Z PROB30 TEMPO 2201/2204 00000KT 2000 FU NSC

Weather observations and forecasts of more than 4000 airports (METAR and TAF reports).

The available stations are represented by yellow and red dots on the map.

Hover mouse over dot to see the name of the station.

Then click to see weather observations and forecasts.

To change the map : click on the green buttons with a black cross to zoom in, on the green button with a dash to zoom out, or on the green arrows for adjacent maps.


METAR-TAF: